Time;durP1;ratioP1;P1;durP2;ratioP2;P2;SDS_P1;SDS_P2;PMS_P1;PMS_P2;Temp;Humidity;BMP_temperature;BMP_pressure;BME280_temperature;BME280_humidity;BME280_pressure;Samples;Min_cycle;Max_cycle;Signal;HPM_P1;HPM_P2
2022/06/16 00:00:14;;;;;;;2.83;1.88;;;20.20;58.20;;;19.34;45.41;97292.31;5090028;28;20488;-70
2022/06/16 00:02:41;;;;;;;3.25;2.10;;;20.10;57.80;;;19.30;46.50;97298.63;5090870;28;20429;-70
2022/06/16 00:05:12;;;;;;;4.57;2.38;;;20.10;58.50;;;19.30;47.08;97296.72;5090629;28;20402;-70
2022/06/16 00:07:39;;;;;;;3.58;1.95;;;20.10;58.90;;;19.30;46.88;97294.03;5090728;28;20417;-70
2022/06/16 00:10:07;;;;;;;2.95;2.10;;;20.10;58.90;;;19.25;47.17;97290.69;5089846;28;20402;-70
2022/06/16 00:12:34;;;;;;;4.45;2.30;;;20.10;59.20;;;19.24;47.19;97292.59;5090467;28;20403;-70
2022/06/16 00:15:00;;;;;;;4.80;2.00;;;20.00;59.10;;;19.25;47.60;97298.72;5090543;28;20424;-70
2022/06/16 00:17:27;;;;;;;4.45;2.17;;;20.00;59.50;;;19.24;47.38;97297.19;5090461;28;20450;-70
2022/06/16 00:19:53;;;;;;;5.10;2.60;;;20.00;59.40;;;19.24;47.15;97295.28;5089856;28;20402;-71
2022/06/16 00:22:20;;;;;;;2.95;2.10;;;20.00;59.30;;;19.25;47.72;97288.00;5090356;28;20398;-70
2022/06/16 00:24:46;;;;;;;5.68;2.28;;;20.00;59.70;;;19.26;48.16;97294.97;5090380;28;20941;-70
2022/06/16 00:27:12;;;;;;;3.58;2.13;;;20.00;60.30;;;19.23;47.77;97293.69;5090207;28;20441;-70
2022/06/16 00:29:38;;;;;;;3.58;2.33;;;20.00;59.70;;;19.19;48.07;97297.28;5089798;28;20894;-70
2022/06/16 00:32:06;;;;;;;4.28;2.40;;;20.00;60.00;;;19.18;49.64;97287.66;5090000;28;20398;-71
2022/06/16 00:34:32;;;;;;;3.13;2.23;;;19.90;61.90;;;19.17;50.56;97284.19;5090293;28;20394;-70
2022/06/16 00:36:58;;;;;;;3.55;2.50;;;19.90;62.90;;;19.18;50.46;97283.06;5090110;28;20871;-70
2022/06/16 00:39:25;;;;;;;2.58;2.15;;;20.00;62.80;;;19.18;50.30;97285.75;5089655;28;20401;-70
2022/06/16 00:41:51;;;;;;;3.03;2.17;;;20.00;62.80;;;19.18;50.10;97290.34;5089992;28;20887;-70
2022/06/16 00:44:40;;;;;;;3.55;2.13;;;20.00;62.90;;;19.17;49.44;97286.84;5090206;28;20405;-70
2022/06/16 00:47:07;;;;;;;4.05;2.03;;;19.90;62.00;;;19.16;49.65;97279.94;5089367;28;20763;-70
2022/06/16 00:49:36;;;;;;;2.75;2.20;;;19.90;62.20;;;19.16;49.21;97273.78;5089383;28;20398;-70
2022/06/16 00:52:08;;;;;;;3.80;2.00;;;19.90;61.50;;;19.12;50.77;97275.47;5090079;28;20394;-70
2022/06/16 00:54:43;;;;;;;2.83;2.30;;;19.90;63.50;;;19.10;50.95;97283.03;5089973;28;20967;-70
2022/06/16 00:57:14;;;;;;;3.03;2.13;;;19.90;63.80;;;19.10;49.59;97274.97;5090522;28;21019;-70
2022/06/16 00:59:43;;;;;;;2.83;2.15;;;19.90;62.70;;;19.06;49.70;97274.03;5089391;28;20416;-70
2022/06/16 01:02:10;;;;;;;3.10;2.03;;;19.80;63.20;;;19.04;49.57;97276.22;5089756;28;20394;-70
2022/06/16 01:04:51;;;;;;;2.92;2.10;;;19.80;62.20;;;19.01;50.58;97274.97;5089855;28;20852;-71
2022/06/16 01:07:24;;;;;;;3.33;2.07;;;19.80;63.10;;;18.98;50.81;97272.88;5089678;28;20410;-70
2022/06/16 01:09:54;;;;;;;3.10;2.15;;;19.80;64.40;;;18.94;50.31;97278.06;5089267;28;20413;-70
2022/06/16 01:16:06;;;;;;;3.63;2.27;;;19.70;62.30;;;18.91;50.72;97270.66;5089726;28;20435;-70
2022/06/16 01:18:51;;;;;;;3.38;2.00;;;19.70;63.50;;;18.90;50.43;97276.31;5089331;28;20414;-70
2022/06/16 01:21:29;;;;;;;3.10;2.10;;;19.70;63.60;;;18.87;51.95;97272.34;5089645;28;20421;-70
2022/06/16 01:24:25;;;;;;;5.60;2.33;;;19.60;65.00;;;18.84;51.29;97275.66;5089797;28;20427;-70
2022/06/16 01:27:40;;;;;;;3.03;2.08;;;19.60;64.30;;;18.79;50.17;97275.00;5089524;28;20851;-70
2022/06/16 01:30:11;;;;;;;5.10;2.53;;;19.60;64.10;;;18.76;50.77;97268.34;5088871;28;20906;-70
2022/06/16 01:32:48;;;;;;;2.80;2.20;;;19.60;63.70;;;18.73;50.08;97266.25;5089880;28;20496;-70
2022/06/16 01:35:23;;;;;;;3.50;2.10;;;19.50;63.20;;;18.69;50.03;97268.00;5089696;28;20386;-70
2022/06/16 01:38:02;;;;;;;3.67;2.57;;;19.50;62.80;;;18.65;50.35;97268.88;5089482;28;20409;-70
2022/06/16 01:40:34;;;;;;;4.57;2.28;;;19.40;63.50;;;18.62;50.89;97267.63;5089447;28;20398;-70
2022/06/16 01:43:10;;;;;;;4.78;2.20;;;19.40;64.00;;;18.60;50.51;97269.00;5089710;28;20531;-70
2022/06/16 01:45:45;;;;;;;2.75;2.20;;;19.40;63.50;;;18.57;49.55;97258.91;5089495;28;20390;-70
2022/06/16 01:48:14;;;;;;;2.75;2.20;;;19.30;62.90;;;18.53;49.85;97264.84;5088847;28;20817;-70
2022/06/16 01:50:47;;;;;;;3.13;2.10;;;19.40;62.70;;;18.51;49.83;97255.53;5089384;28;20928;-70
2022/06/16 01:53:18;;;;;;;3.22;2.20;;;19.30;63.00;;;18.46;50.35;97255.66;5089614;28;20390;-70
2022/06/16 01:55:52;;;;;;;3.05;2.13;;;19.30;63.40;;;18.42;50.21;97254.66;5089786;28;20744;-70
2022/06/16 01:58:23;;;;;;;4.72;2.28;;;19.20;63.30;;;18.38;51.17;97249.13;5091884;28;20721;-70
2022/06/16 02:00:54;;;;;;;3.03;2.03;;;19.20;64.60;;;18.34;50.71;97253.53;5092865;28;20401;-71
2022/06/16 02:03:27;;;;;;;3.03;2.23;;;19.10;64.10;;;18.34;50.31;97248.16;5093323;28;20545;-70
2022/06/16 02:05:57;;;;;;;2.90;2.00;;;19.20;63.40;;;18.33;49.85;97256.50;5093076;28;20961;-70
2022/06/16 02:08:29;;;;;;;3.72;2.20;;;19.10;63.00;;;18.27;49.97;97249.69;5092521;28;20421;-70
2022/06/16 02:11:03;;;;;;;3.20;2.10;;;19.10;63.00;;;18.19;50.75;97241.25;5092718;28;20405;-70
2022/06/16 02:13:43;;;;;;;4.35;2.30;;;19.10;63.80;;;18.18;50.44;97242.38;5092974;28;20940;-71
2022/06/16 02:16:16;;;;;;;3.92;2.20;;;19.00;64.00;;;18.12;51.24;97245.44;5092753;28;20401;-72
2022/06/16 02:18:44;;;;;;;3.38;2.05;;;18.90;65.30;;;18.10;50.89;97242.28;5092307;28;20390;-71
2022/06/16 02:21:18;;;;;;;3.58;2.25;;;18.90;64.20;;;18.10;50.54;97240.41;5092583;28;20587;-70
2022/06/16 02:23:45;;;;;;;4.47;2.40;;;18.90;64.40;;;18.05;51.01;97237.81;5092882;28;20502;-70
2022/06/16 02:26:12;;;;;;;3.63;2.13;;;18.90;64.40;;;18.01;51.07;97236.84;5092657;28;20401;-70
2022/06/16 02:28:44;;;;;;;3.33;2.50;;;18.80;64.50;;;17.97;51.54;97240.44;5091956;28;20498;-70
2022/06/16 02:31:32;;;;;;;4.55;2.30;;;18.80;64.80;;;17.97;51.25;97232.38;5092409;28;20390;-70
2022/06/16 02:34:09;;;;;;;2.55;2.13;;;18.80;64.70;;;17.92;51.77;97230.63;5092647;28;20400;-70
2022/06/16 02:36:56;;;;;;;2.60;2.22;;;18.80;65.20;;;17.89;52.33;97233.94;5092252;28;20442;-70
2022/06/16 02:39:37;;;;;;;3.80;2.33;;;18.70;65.90;;;17.88;52.23;97237.69;5091993;28;20387;-70
2022/06/16 02:42:17;;;;;;;3.33;2.25;;;18.70;66.00;;;17.84;52.63;97225.19;5092428;28;20393;-70
2022/06/16 02:45:00;;;;;;;3.97;2.30;;;18.70;66.40;;;17.79;52.64;97224.22;5092260;28;20480;-70
2022/06/16 02:47:54;;;;;;;3.40;2.30;;;18.60;66.50;;;17.80;51.79;97219.66;5092345;28;20414;-70
2022/06/16 02:50:37;;;;;;;2.35;2.10;;;18.60;65.70;;;17.74;52.38;97220.88;5091509;28;20405;-70
2022/06/16 02:53:20;;;;;;;3.75;2.40;;;18.60;66.40;;;17.67;52.69;97218.56;5092388;28;20764;-70
2022/06/16 02:55:53;;;;;;;2.78;2.30;;;18.50;66.50;;;17.66;52.91;97216.22;5092135;28;20418;-70
2022/06/16 02:58:23;;;;;;;3.07;2.30;;;18.50;66.70;;;17.62;53.79;97231.28;5091712;28;20864;-70
2022/06/16 03:00:53;;;;;;;4.63;2.70;;;18.50;67.90;;;17.64;54.28;97227.22;5091727;28;20931;-70
2022/06/16 03:03:24;;;;;;;4.90;2.67;;;18.50;68.50;;;17.65;54.13;97225.34;5092101;28;20459;-70
2022/06/16 03:05:51;;;;;;;3.20;2.30;;;18.50;68.30;;;17.60;54.62;97222.72;5091928;28;20416;-70
2022/06/16 03:08:18;;;;;;;3.17;2.20;;;18.40;68.70;;;17.59;55.01;97224.59;5091223;28;20413;-70
2022/06/16 03:10:53;;;;;;;3.40;2.30;;;18.40;69.40;;;17.59;55.29;97223.84;5091278;28;20433;-70
2022/06/16 03:13:22;;;;;;;3.55;2.50;;;18.40;69.60;;;17.58;55.64;97216.91;5091887;28;20398;-70
2022/06/16 03:15:50;;;;;;;5.40;2.38;;;18.40;70.30;;;17.57;54.82;97216.09;5091990;28;20429;-70
2022/06/16 03:18:16;;;;;;;4.10;2.40;;;18.40;69.70;;;17.56;54.04;97217.19;5091449;28;20417;-70
2022/06/16 03:20:44;;;;;;;2.72;2.35;;;18.40;68.80;;;17.55;53.84;97212.94;5091408;28;20401;-70
2022/06/16 03:23:10;;;;;;;2.67;2.20;;;18.30;68.30;;;17.52;55.12;97215.41;5091703;28;20652;-70
2022/06/16 03:25:37;;;;;;;4.13;2.30;;;18.30;69.40;;;17.49;55.63;97222.16;5091600;28;20403;-70
2022/06/16 03:28:04;;;;;;;3.13;2.28;;;18.30;70.20;;;17.50;54.37;97221.06;5090903;28;20421;-70
2022/06/16 03:30:30;;;;;;;2.97;2.20;;;18.30;69.40;;;17.48;55.08;97225.13;5091112;28;20415;-70
2022/06/16 03:32:56;;;;;;;4.18;2.60;;;18.30;69.70;;;17.48;54.82;97233.16;5091561;28;20911;-70
2022/06/16 03:35:22;;;;;;;4.53;2.30;;;18.30;69.50;;;17.46;55.70;97221.94;5091456;28;20394;-70
2022/06/16 03:37:49;;;;;;;3.60;2.40;;;18.30;70.60;;;17.48;55.88;97230.47;5091132;28;20960;-70
2022/06/16 03:40:15;;;;;;;5.05;2.60;;;18.30;71.00;;;17.49;55.78;97229.41;5090384;28;20402;-70
2022/06/16 03:42:41;;;;;;;4.55;2.35;;;18.30;71.10;;;17.52;56.28;97231.44;5091328;28;20394;-70
2022/06/16 03:45:09;;;;;;;5.80;2.55;;;18.30;71.50;;;17.51;56.51;97238.72;5091100;28;20398;-70
2022/06/16 03:47:34;;;;;;;4.07;2.58;;;18.30;71.70;;;17.56;56.44;97237.81;5091080;28;20420;-70
2022/06/16 03:50:00;;;;;;;8.95;2.45;;;18.30;71.90;;;17.58;57.62;97239.09;5090509;28;20405;-70
2022/06/16 03:52:26;;;;;;;4.88;2.40;;;18.40;73.00;;;17.61;57.02;97238.53;5090994;28;20398;-70
2022/06/16 03:54:53;;;;;;;4.35;2.47;;;18.40;72.60;;;17.70;57.43;97247.44;5090905;28;20419;-70
2022/06/16 03:57:21;;;;;;;3.58;2.85;;;18.50;73.30;;;17.81;57.36;97250.69;5090902;28;20412;-70
2022/06/16 03:59:47;;;;;;;4.60;2.72;;;18.50;73.40;;;17.97;55.11;97253.81;5090412;28;20544;-70
2022/06/16 04:02:13;;;;;;;6.85;3.08;;;18.70;71.30;;;18.22;49.84;97263.97;5090969;28;20441;-71
2022/06/16 04:04:39;;;;;;;3.27;2.50;;;18.90;65.20;;;18.46;49.56;97269.06;5090837;28;20493;-70
2022/06/16 04:07:05;;;;;;;6.87;2.60;;;19.10;64.90;;;18.69;48.41;97278.72;5090730;28;20417;-71
2022/06/16 04:09:31;;;;;;;5.15;2.45;;;19.30;62.90;;;18.90;47.26;97270.94;5090126;28;20402;-71
2022/06/16 04:11:58;;;;;;;4.78;2.75;;;19.60;61.50;;;19.13;47.09;97264.44;5090528;28;20398;-70
2022/06/16 04:14:24;;;;;;;4.67;2.40;;;19.70;61.60;;;19.32;45.83;97272.28;5090691;28;20420;-70
2022/06/16 04:16:56;;;;;;;5.53;2.53;;;20.00;59.70;;;19.48;43.66;97273.44;5090391;28;20516;-70
2022/06/16 04:19:22;;;;;;;7.38;2.70;;;20.10;57.50;;;19.61;43.01;97271.75;5090050;28;20401;-71
2022/06/16 04:21:52;;;;;;;3.40;2.28;;;20.20;57.00;;;19.73;44.29;97277.31;5089511;28;20401;-71
2022/06/16 04:24:18;;;;;;;7.63;2.80;;;20.30;57.70;;;19.80;42.58;97264.22;5090646;28;20390;-71
2022/06/16 04:26:45;;;;;;;4.07;2.50;;;20.40;56.70;;;19.89;43.36;97278.47;5090160;28;20410;-70
2022/06/16 04:29:13;;;;;;;3.67;2.30;;;20.50;56.50;;;19.98;44.24;97281.97;5089713;28;20405;-71
2022/06/16 04:31:40;;;;;;;3.13;2.40;;;20.60;57.60;;;20.06;45.99;97283.06;5090206;28;20452;-71
2022/06/16 04:34:09;;;;;;;3.92;2.70;;;20.70;59.10;;;20.12;43.48;97281.03;5090126;28;20398;-71
2022/06/16 04:36:35;;;;;;;3.38;2.30;;;20.70;56.80;;;20.15;45.13;97289.22;5089957;28;20906;-70
2022/06/16 04:39:01;;;;;;;4.88;2.33;;;20.80;58.30;;;20.19;45.83;97289.41;5089746;28;20413;-71
2022/06/16 04:41:27;;;;;;;2.72;2.00;;;20.80;59.10;;;20.18;46.90;97288.59;5090031;28;20486;-70
2022/06/16 04:43:53;;;;;;;5.90;2.40;;;20.80;60.00;;;20.18;47.42;97298.56;5090250;28;20601;-71
2022/06/16 04:46:22;;;;;;;3.33;2.17;;;20.80;60.40;;;20.18;47.76;97294.00;5090100;28;20398;-71
2022/06/16 04:48:48;;;;;;;3.30;2.60;;;20.80;61.20;;;20.20;46.27;97297.16;5089469;28;20410;-71
2022/06/16 04:51:15;;;;;;;4.00;2.60;;;20.80;59.50;;;20.22;45.79;97292.25;5090001;28;20740;-71
2022/06/16 04:53:41;;;;;;;2.78;2.22;;;20.80;59.60;;;20.22;47.40;97299.53;5090181;28;20398;-71
2022/06/16 04:56:07;;;;;;;2.73;2.27;;;20.80;61.60;;;20.19;48.83;97302.84;5089845;28;20413;-71
2022/06/16 04:58:33;;;;;;;4.57;2.22;;;20.80;62.30;;;20.16;50.77;97312.31;5089437;28;20890;-71
2022/06/16 05:00:59;;;;;;;3.90;2.60;;;20.80;64.60;;;20.12;51.48;97318.66;5089782;28;20943;-71
2022/06/16 05:03:28;;;;;;;3.67;2.40;;;20.70;65.50;;;20.03;50.28;97305.19;5090096;28;20408;-71
2022/06/16 05:05:56;;;;;;;3.30;2.20;;;20.70;64.40;;;19.93;50.41;97308.97;5089823;28;20406;-71
2022/06/16 05:08:23;;;;;;;3.40;2.30;;;20.60;64.60;;;19.88;50.97;97319.06;5089429;28;20416;-71
2022/06/16 05:10:51;;;;;;;4.93;2.30;;;20.50;65.10;;;19.85;51.09;97325.84;5089533;28;20439;-71
2022/06/16 05:13:18;;;;;;;3.92;2.58;;;20.50;65.40;;;19.80;51.23;97330.56;5089807;28;20394;-71
2022/06/16 05:15:44;;;;;;;2.67;2.10;;;20.40;65.40;;;19.74;51.66;97334.50;5089926;28;20970;-71
2022/06/16 05:18:13;;;;;;;4.87;2.57;;;20.40;66.10;;;19.71;52.98;97336.72;5089227;28;20511;-71
2022/06/16 05:20:43;;;;;;;3.10;2.67;;;20.40;67.60;;;19.76;54.29;97332.31;5089636;28;20392;-71
2022/06/16 05:23:11;;;;;;;5.82;3.35;;;20.40;69.30;;;19.80;51.69;97322.50;5089872;28;20810;-71
2022/06/16 05:25:37;;;;;;;7.18;3.08;;;20.40;66.30;;;19.84;52.69;97326.19;5089765;28;20754;-71
2022/06/16 05:28:04;;;;;;;4.72;3.15;;;20.50;67.20;;;19.87;53.60;97323.66;5089125;28;20420;-70
2022/06/16 05:30:30;;;;;;;4.40;2.88;;;20.50;68.60;;;19.88;53.89;97330.59;5089632;28;20404;-71
2022/06/16 05:32:56;;;;;;;3.72;2.97;;;20.50;69.00;;;19.92;54.99;97338.84;5091974;28;20410;-71
2022/06/16 05:35:23;;;;;;;3.63;2.70;;;20.50;70.10;;;19.99;55.36;97341.88;5093801;28;20398;-71
2022/06/16 05:37:50;;;;;;;3.07;2.50;;;20.60;70.90;;;20.05;55.75;97345.97;5106506;22;21125;-72
2022/06/16 05:40:16;;;;;;;3.38;2.55;;;20.70;71.50;;;20.12;56.63;97348.22;5092685;28;20459;-72
2022/06/16 05:42:42;;;;;;;3.83;2.70;;;20.70;72.80;;;20.20;57.62;97342.84;5093649;28;20486;-72
2022/06/16 05:45:11;;;;;;;6.30;2.70;;;20.80;74.80;;;20.31;58.28;97343.31;5093471;28;20838;-73
2022/06/16 05:47:37;;;;;;;4.38;2.95;;;20.90;75.20;;;20.42;58.61;97355.41;5093228;28;20416;-73
2022/06/16 05:50:05;;;;;;;6.07;2.80;;;21.00;76.10;;;20.56;57.47;97357.94;5092613;28;20394;-72
2022/06/16 05:52:31;;;;;;;4.00;2.83;;;21.10;75.10;;;20.68;56.37;97361.56;5093240;28;20836;-73
2022/06/16 05:54:59;;;;;;;3.28;2.70;;;21.20;73.60;;;20.78;56.52;97358.56;5093282;28;20401;-74
2022/06/16 05:57:25;;;;;;;3.25;2.70;;;21.30;73.80;;;20.84;57.19;97356.50;5093248;28;20774;-72
2022/06/16 05:59:51;;;;;;;3.38;2.83;;;21.40;74.70;;;20.85;57.89;97369.66;5092642;28;20429;-73
2022/06/16 06:02:19;;;;;;;3.45;2.60;;;21.40;75.50;;;20.80;58.46;97374.41;5093103;28;20475;-73
2022/06/16 06:04:48;;;;;;;4.82;2.80;;;21.40;76.40;;;20.71;59.48;97379.78;5093218;28;20409;-74
2022/06/16 06:07:14;;;;;;;4.40;2.90;;;21.30;77.40;;;20.62;59.05;97375.50;5092936;28;20471;-74
2022/06/16 06:18:15;;;;;;;3.55;2.78;;;21.10;77.80;;;20.54;59.39;97378.97;5088492;28;20529;-73
2022/06/16 06:20:41;;;;;;;4.72;2.80;;;21.10;78.50;;;20.57;59.88;97373.75;5088236;28;20713;-73
2022/06/16 06:23:07;;;;;;;4.57;2.97;;;21.20;79.40;;;20.61;59.13;97365.84;5081397;28;20437;-73
2022/06/16 06:25:33;;;;;;;4.18;2.60;;;21.20;78.70;;;20.66;59.42;97363.00;5087232;28;20393;-73
2022/06/16 06:28:02;;;;;;;3.40;2.55;;;21.20;78.90;;;20.70;59.31;97369.31;5092630;28;20416;-73
2022/06/16 06:30:30;;;;;;;5.47;2.60;;;21.20;78.90;;;20.73;59.14;97360.63;5092365;28;21038;-73
2022/06/16 06:32:57;;;;;;;3.60;2.60;;;21.30;78.70;;;20.78;59.20;97371.22;5090860;28;20527;-73
2022/06/16 06:35:23;;;;;;;4.18;2.70;;;21.30;78.70;;;20.80;57.74;97367.13;5089536;28;20402;-74
2022/06/16 06:37:51;;;;;;;3.28;2.90;;;21.40;77.10;;;20.84;56.22;97369.97;5084639;28;20420;-74
2022/06/16 06:40:22;;;;;;;4.30;2.78;;;21.40;74.90;;;20.93;56.23;97378.03;5083942;28;20879;-73
2022/06/16 06:42:49;;;;;;;5.03;2.40;;;21.50;74.80;;;21.03;56.16;97372.31;5091407;28;20402;-73
2022/06/16 06:45:17;;;;;;;3.83;2.53;;;21.50;74.60;;;21.13;56.18;97378.16;5090119;28;20424;-73
2022/06/16 06:47:43;;;;;;;3.45;2.60;;;21.60;74.90;;;21.34;56.29;97382.91;5092075;28;20409;-74
2022/06/16 06:50:17;;;;;;;3.42;2.30;;;21.80;75.10;;;21.58;56.19;97380.44;5082950;28;20934;-74
2022/06/16 06:52:43;;;;;;;4.25;2.50;;;22.10;74.80;;;21.83;55.17;97374.19;5092303;28;20394;-73
2022/06/16 06:55:09;;;;;;;3.45;2.42;;;22.30;73.60;;;22.03;54.88;97382.69;5092209;28;20481;-73
2022/06/16 06:57:35;;;;;;;3.42;2.50;;;22.50;73.10;;;22.15;54.28;97383.56;5090868;28;20398;-73
2022/06/16 07:00:02;;;;;;;4.70;2.60;;;22.60;72.10;;;22.25;54.47;97387.81;5084320;28;20432;-74
2022/06/16 07:02:29;;;;;;;4.18;2.60;;;22.70;72.40;;;22.30;54.80;97388.41;5077198;28;20408;-73
2022/06/16 07:04:55;;;;;;;2.95;2.65;;;22.80;73.00;;;22.35;55.45;97385.50;5089089;28;20418;-73
2022/06/16 07:07:23;;;;;;;4.03;2.90;;;22.90;73.60;;;22.44;55.33;97388.16;5089899;28;20421;-73
2022/06/16 07:09:50;;;;;;;5.03;2.90;;;22.90;73.70;;;22.53;55.31;97391.59;5076240;28;20403;-73
2022/06/16 07:12:17;;;;;;;3.60;2.83;;;23.00;73.40;;;22.60;54.46;97396.47;5083715;28;20469;-73
2022/06/16 07:14:46;;;;;;;4.80;2.80;;;23.00;71.90;;;22.63;54.34;97403.91;5081787;28;20883;-72
2022/06/16 07:17:12;;;;;;;4.05;2.60;;;23.10;72.00;;;22.61;54.79;97408.84;5077548;28;20390;-74
2022/06/16 07:19:39;;;;;;;3.80;2.53;;;23.10;72.50;;;22.58;53.86;97417.56;5080413;28;20404;-74
2022/06/16 07:22:07;;;;;;;3.53;2.60;;;23.10;71.70;;;22.58;54.37;97421.06;5083233;28;20805;-73
2022/06/16 07:24:33;;;;;;;4.55;2.65;;;23.10;71.90;;;22.60;52.03;97420.75;5082549;28;20917;-73
2022/06/16 07:27:01;;;;;;;4.25;3.03;;;23.10;69.10;;;22.66;52.42;97424.81;5082386;28;20403;-73
2022/06/16 07:29:27;;;;;;;3.97;2.60;;;23.10;69.20;;;22.67;51.08;97418.31;5081131;28;20455;-73
2022/06/16 07:31:53;;;;;;;4.63;3.07;;;23.20;68.00;;;22.61;49.97;97431.22;5079848;28;20942;-73
2022/06/16 07:34:19;;;;;;;5.13;2.87;;;23.10;66.80;;;22.56;50.31;97439.47;5088542;28;20422;-73
2022/06/16 07:36:46;;;;;;;3.03;2.67;;;23.10;67.00;;;22.53;51.56;97436.66;5081721;28;20396;-73
2022/06/16 07:39:12;;;;;;;4.28;2.55;;;23.10;68.10;;;22.55;51.83;97437.13;5081656;28;20409;-74
2022/06/16 07:41:39;;;;;;;3.50;2.70;;;23.10;68.30;;;22.55;50.48;97442.53;5082385;28;20873;-74
2022/06/16 07:44:07;;;;;;;7.55;3.45;;;23.00;66.60;;;22.56;49.31;97446.78;5080134;28;20906;-73
2022/06/16 07:46:35;;;;;;;5.28;3.13;;;23.10;64.90;;;22.58;49.41;97448.06;5081501;28;20768;-75
2022/06/16 07:49:01;;;;;;;4.25;2.90;;;23.10;65.00;;;22.64;48.88;97449.44;5080962;28;20446;-73
2022/06/16 07:51:27;;;;;;;4.82;2.90;;;23.10;64.30;;;22.75;50.77;97452.59;5081129;28;20910;-73
2022/06/16 07:53:54;;;;;;;7.15;3.00;;;23.20;66.60;;;22.88;51.51;97453.44;5096612;28;20407;-73
2022/06/16 07:56:20;;;;;;;4.22;2.92;;;23.40;67.60;;;23.00;50.90;97450.81;5078940;28;20490;-74
2022/06/16 07:58:46;;;;;;;5.68;3.47;;;23.50;67.00;;;23.08;51.26;97458.81;5080397;28;20975;-74
2022/06/16 08:01:12;;;;;;;5.03;3.05;;;23.60;67.20;;;23.13;51.35;97455.16;5070479;28;20411;-72
2022/06/16 08:03:39;;;;;;;4.95;3.30;;;23.60;67.40;;;23.13;50.87;97466.75;5075528;28;20903;-71
2022/06/16 08:06:08;;;;;;;6.57;3.45;;;23.60;67.20;;;23.09;50.16;97467.72;5093863;28;21016;-73
2022/06/16 08:08:36;;;;;;;6.28;3.97;;;23.60;65.90;;;23.08;50.45;97464.22;5078490;28;20419;-74
2022/06/16 08:11:04;;;;;;;7.47;4.13;;;23.60;66.10;;;23.06;47.93;97471.88;5079207;28;20634;-73
2022/06/16 08:13:31;;;;;;;13.32;3.67;;;23.60;63.00;;;23.09;48.89;97475.81;5080916;28;20406;-74
2022/06/16 08:15:57;;;;;;;8.10;3.53;;;23.60;64.20;;;23.11;47.19;97473.59;5080180;28;20397;-73
2022/06/16 08:18:25;;;;;;;5.38;3.72;;;23.60;62.10;;;23.11;47.19;97470.88;5080292;28;20724;-73
2022/06/16 08:20:53;;;;;;;8.85;3.58;;;23.60;61.90;;;23.06;45.72;97476.50;5078558;28;20498;-75
2022/06/16 08:23:19;;;;;;;9.25;3.50;;;23.60;59.90;;;23.10;46.74;97478.19;5079481;28;20400;-75
2022/06/16 08:25:48;;;;;;;7.05;3.67;;;23.60;61.40;;;23.16;46.66;97476.88;5080435;28;21006;-73
2022/06/16 08:28:19;;;;;;;11.50;3.90;;;23.60;61.10;;;23.23;45.97;97483.69;5079034;28;20441;-73
2022/06/16 08:30:46;;;;;;;9.50;3.63;;;23.70;60.00;;;23.32;45.44;97477.06;5082436;28;20910;-73
2022/06/16 08:33:15;;;;;;;5.95;3.90;;;23.80;59.50;;;23.39;44.40;97490.03;5072717;28;20417;-72
2022/06/16 08:35:42;;;;;;;10.25;3.40;;;23.90;58.40;;;23.55;43.65;97488.31;5079153;28;20790;-74
2022/06/16 08:38:08;;;;;;;8.55;3.50;;;24.00;58.00;;;23.65;44.36;97489.84;5076599;28;20453;-70
2022/06/16 08:40:45;;;;;;;4.72;3.28;;;24.10;58.50;;;23.57;42.51;97488.78;5080194;28;20899;-72
2022/06/16 08:43:27;;;;;;;5.93;3.08;;;24.10;56.10;;;23.37;41.16;97493.09;5079462;28;20398;-70
2022/06/16 08:45:57;;;;;;;5.75;3.03;;;23.90;55.20;;;23.25;41.90;97495.72;5077346;28;20514;-72
2022/06/16 08:48:31;;;;;;;5.20;2.95;;;23.80;55.50;;;23.31;43.72;97499.00;5086014;28;20896;-72
2022/06/16 08:51:03;;;;;;;5.25;3.10;;;23.80;57.50;;;23.40;44.50;97492.41;5080904;28;20438;-73
2022/06/16 08:53:51;;;;;;;8.07;3.30;;;23.90;58.40;;;23.45;42.67;97505.72;5089902;28;20487;-72
2022/06/16 08:56:29;;;;;;;5.90;2.72;;;24.00;56.30;;;23.52;42.25;97502.53;5089750;28;20438;-73
2022/06/16 08:59:12;;;;;;;6.43;3.20;;;24.00;55.80;;;23.57;41.25;97517.72;5089276;28;20398;-75
2022/06/16 09:01:46;;;;;;;6.05;3.10;;;24.10;56.50;;;23.58;40.89;97503.09;5089674;28;20473;-74
2022/06/16 09:04:19;;;;;;;11.02;3.80;;;24.10;54.70;;;23.60;41.74;97512.47;5089864;28;20476;-73
2022/06/16 09:06:56;;;;;;;6.28;3.08;;;24.10;55.50;;;23.67;41.74;97515.41;5089092;28;20390;-74
2022/06/16 09:13:17;;;;;;;4.45;2.97;;;24.30;56.00;;;23.93;40.88;97515.13;5072738;28;20394;-73
2022/06/16 09:15:52;;;;;;;4.93;2.93;;;24.40;56.20;;;24.12;42.89;97514.63;5084482;28;20404;-73
2022/06/16 09:18:56;;;;;;;7.93;3.20;;;24.50;56.30;;;24.17;39.95;97512.50;5080657;28;20473;-74
2022/06/16 09:21:33;;;;;;;5.10;2.90;;;24.70;53.30;;;24.28;42.31;97529.88;5076043;28;20424;-73
2022/06/16 09:24:23;;;;;;;5.50;2.93;;;24.70;55.70;;;24.31;40.41;97517.59;5077800;28;20442;-73
2022/06/16 09:26:57;;;;;;;5.47;2.90;;;24.80;54.00;;;24.41;42.07;97519.88;5078140;28;20387;-73
2022/06/16 09:29:31;;;;;;;6.68;3.10;;;24.80;55.70;;;24.50;43.09;97525.97;5076924;28;20408;-73
2022/06/16 09:32:08;;;;;;;7.43;3.05;;;24.90;56.50;;;24.53;41.61;97532.63;5082138;28;20396;-73
2022/06/16 09:34:43;;;;;;;9.25;3.33;;;25.00;56.00;;;24.58;43.22;97518.88;5072473;28;20396;-74
2022/06/16 09:37:15;;;;;;;6.05;3.00;;;25.00;56.40;;;24.69;43.45;97528.09;5069247;28;20478;-72
2022/06/16 09:39:48;;;;;;;6.72;3.10;;;25.10;56.90;;;24.68;40.62;97531.94;5073957;28;20403;-73
2022/06/16 09:42:32;;;;;;;6.82;2.85;;;25.20;54.10;;;24.75;42.29;97529.44;5079399;28;20406;-74
2022/06/16 09:45:06;;;;;;;9.52;3.08;;;25.20;55.90;;;24.86;42.88;97536.00;5078779;28;20459;-74
2022/06/16 09:47:42;;;;;;;7.15;2.95;;;25.20;56.50;;;25.05;43.59;97535.44;5078000;28;20490;-73
2022/06/16 09:50:18;;;;;;;4.35;2.67;;;25.40;57.50;;;25.18;42.98;97530.78;5077850;28;20455;-73
2022/06/16 09:52:49;;;;;;;6.85;3.28;;;25.60;56.50;;;25.24;42.32;97532.91;5080156;28;20516;-73
2022/06/16 09:55:23;;;;;;;7.75;2.88;;;25.60;56.00;;;25.33;42.32;97536.28;5089555;28;20401;-72
2022/06/16 09:57:56;;;;;;;9.10;3.63;;;25.70;56.20;;;25.26;39.90;97538.75;5089662;28;20477;-72
2022/06/16 10:00:26;;;;;;;5.70;3.10;;;25.70;53.00;;;25.14;38.59;97541.50;5088285;28;20849;-72
2022/06/16 10:03:00;;;;;;;10.05;3.38;;;25.60;52.40;;;25.09;39.74;97555.31;5078254;28;20951;-73
2022/06/16 10:05:35;;;;;;;6.15;2.60;;;25.50;52.90;;;25.19;41.29;97548.59;5089205;28;20390;-75
2022/06/16 10:08:06;;;;;;;5.47;2.80;;;25.60;54.90;;;25.28;41.76;97550.06;5084189;28;20560;-74
2022/06/16 10:10:40;;;;;;;7.50;2.63;;;25.70;55.40;;;25.42;42.26;97557.81;5083197;28;20513;-72
2022/06/16 10:13:17;;;;;;;8.23;2.95;;;25.80;55.90;;;25.49;42.11;97552.59;5089358;28;20405;-75
2022/06/16 10:15:49;;;;;;;6.43;3.13;;;25.90;56.40;;;25.51;41.07;97561.19;5089382;28;20410;-74
2022/06/16 10:18:17;;;;;;;5.72;2.90;;;25.90;54.60;;;25.57;40.89;97550.88;5087412;28;20898;-73
2022/06/16 10:20:45;;;;;;;5.28;2.83;;;25.90;54.50;;;25.66;42.41;97565.91;5090873;28;20862;-73
2022/06/16 10:23:16;;;;;;;5.13;2.70;;;26.00;55.90;;;25.73;41.26;97568.03;5089428;28;20429;-73
2022/06/16 10:25:47;;;;;;;4.50;2.78;;;26.10;55.00;;;25.88;41.54;97580.03;5088624;28;20401;-73
2022/06/16 10:28:27;;;;;;;6.03;2.83;;;26.20;55.40;;;26.12;42.67;97575.31;5081740;28;20498;-73
2022/06/16 10:30:53;;;;;;;7.28;2.80;;;26.40;56.50;;;26.45;42.08;97571.53;5081619;28;20869;-73
2022/06/16 10:33:26;;;;;;;4.78;2.67;;;26.70;55.70;;;26.91;40.33;97584.31;5077561;28;20406;-73
2022/06/16 10:35:56;;;;;;;6.60;3.23;;;27.10;54.10;;;27.31;36.14;97585.97;5080923;28;20430;-74
2022/06/16 10:38:38;;;;;;;7.22;3.22;;;27.70;49.30;;;28.31;34.57;97589.59;5075574;28;20470;-74
2022/06/16 10:41:20;;;;;;;5.40;2.80;;;28.70;48.10;;;29.57;34.67;97581.09;5077113;28;20536;-71
2022/06/16 10:43:47;;;;;;;5.95;2.63;;;30.00;48.00;;;31.04;33.11;97587.69;5080616;28;20418;-71
2022/06/16 10:46:20;;;;;;;8.30;2.90;;;31.40;47.00;;;32.38;31.35;97594.19;5083491;28;20417;-71
2022/06/16 10:48:52;;;;;;;4.32;2.35;;;32.70;44.30;;;33.57;29.55;97591.78;5091361;28;20493;-72